Time;durP1;ratioP1;P1;durP2;ratioP2;P2;SDS_P1;SDS_P2;PMS_P1;PMS_P2;Temp;Humidity;BMP_temperature;BMP_pressure;BME280_temperature;BME280_humidity;BME280_pressure;Samples;Min_cycle;Max_cycle;Signal;HPM_P1;HPM_P2
2024/01/10 00:01:02;;;;;;;19.67;9.68;;;;;;;-8.05;100.00;98071.25;5056520;28;20136;-63
2024/01/10 00:03:29;;;;;;;17.60;10.27;;;;;;;-8.00;100.00;98065.66;5047656;28;20116;-63
2024/01/10 00:05:56;;;;;;;21.15;10.18;;;;;;;-7.93;100.00;98068.66;5044493;28;20255;-63
2024/01/10 00:08:22;;;;;;;20.20;8.68;;;;;;;-7.90;100.00;98068.41;5040294;28;20053;-63
2024/01/10 00:10:49;;;;;;;17.05;9.57;;;;;;;-7.96;100.00;98073.19;5047750;28;20045;-63
2024/01/10 00:13:16;;;;;;;17.40;8.73;;;;;;;-7.90;100.00;98071.88;5052125;28;20843;-63
2024/01/10 00:15:42;;;;;;;20.55;9.20;;;;;;;-7.82;100.00;98062.59;5064821;28;20040;-63
2024/01/10 00:18:09;;;;;;;21.23;9.52;;;;;;;-7.84;100.00;98057.44;5061169;28;20080;-63
2024/01/10 00:20:35;;;;;;;21.52;10.30;;;;;;;-7.84;100.00;98062.69;5049059;28;20037;-64
2024/01/10 00:23:02;;;;;;;20.65;10.02;;;;;;;-7.78;100.00;98059.59;5053772;28;20045;-63
2024/01/10 00:25:29;;;;;;;15.95;9.30;;;;;;;-7.73;100.00;98052.19;5054632;28;20136;-64
2024/01/10 00:27:55;;;;;;;20.65;8.48;;;;;;;-7.72;100.00;98059.13;5051250;28;20178;-64
2024/01/10 00:30:22;;;;;;;17.20;8.27;;;;;;;-7.65;100.00;98054.22;5050424;28;20083;-64
2024/01/10 00:32:48;;;;;;;17.85;8.85;;;;;;;-7.52;100.00;98050.66;5060658;28;20033;-63
2024/01/10 00:35:15;;;;;;;19.90;10.23;;;;;;;-7.52;100.00;98043.56;5054314;28;20041;-64
2024/01/10 00:37:42;;;;;;;16.58;8.13;;;;;;;-7.52;100.00;98043.56;5052523;28;20570;-64
2024/01/10 00:40:09;;;;;;;19.60;9.23;;;;;;;-7.48;100.00;98041.56;5054057;28;20254;-64
2024/01/10 00:42:35;;;;;;;17.85;7.63;;;;;;;-7.49;100.00;98045.16;5055425;28;20040;-64
2024/01/10 00:45:02;;;;;;;24.48;9.80;;;;;;;-7.40;100.00;98043.56;5059715;28;20141;-64
2024/01/10 00:47:29;;;;;;;15.75;7.40;;;;;;;-7.33;100.00;98042.97;5060445;28;20550;-63
2024/01/10 00:49:55;;;;;;;16.08;7.82;;;;;;;-7.33;100.00;98042.97;5051823;28;20455;-64
2024/01/10 00:52:22;;;;;;;18.05;8.18;;;;;;;-7.33;100.00;98045.59;5064144;28;20094;-64
2024/01/10 00:54:48;;;;;;;18.33;8.82;;;;;;;-7.34;100.00;98043.09;5056907;28;20037;-64
2024/01/10 00:57:15;;;;;;;19.73;9.13;;;;;;;-7.36;100.00;98045.00;5062261;28;20037;-64
2024/01/10 00:59:41;;;;;;;21.92;8.80;;;;;;;-7.38;100.00;98044.31;5059363;28;20072;-64
2024/01/10 01:02:08;;;;;;;24.27;8.48;;;;;;;-7.41;100.00;98050.63;5052038;28;20059;-64
2024/01/10 01:04:35;;;;;;;14.70;7.35;;;;;;;-7.39;100.00;98046.09;5037957;28;20131;-64
2024/01/10 01:07:01;;;;;;;16.55;8.93;;;;;;;-7.23;100.00;98042.25;5058758;28;20136;-64
2024/01/10 01:09:28;;;;;;;16.48;8.98;;;;;;;-7.27;100.00;98044.28;5046615;28;20275;-64
2024/01/10 01:11:55;;;;;;;17.25;7.97;;;;;;;-7.25;100.00;98049.41;5042022;28;20045;-64
2024/01/10 01:14:21;;;;;;;19.33;8.75;;;;;;;-7.26;100.00;98053.00;5052505;28;20056;-64
2024/01/10 01:16:48;;;;;;;16.15;8.32;;;;;;;-7.35;100.00;98049.31;5038106;28;20041;-63
2024/01/10 01:19:14;;;;;;;16.70;7.53;;;;;;;-7.28;100.00;98045.25;5044348;28;20046;-64
2024/01/10 01:21:42;;;;;;;22.88;8.32;;;;;;;-7.22;100.00;98051.81;5054738;28;20049;-64
2024/01/10 01:24:09;;;;;;;16.90;7.72;;;;;;;-7.21;100.00;98054.31;5051305;28;20040;-64
2024/01/10 01:26:35;;;;;;;14.35;6.72;;;;;;;-7.18;100.00;98054.06;5054119;28;20042;-64
2024/01/10 01:29:01;;;;;;;22.27;10.15;;;;;;;-7.14;100.00;98059.09;5045956;28;20049;-64
2024/01/10 01:31:30;;;;;;;18.40;8.25;;;;;;;-7.14;100.00;98056.47;5048349;28;20068;-64
2024/01/10 01:33:56;;;;;;;14.48;7.65;;;;;;;-7.12;100.00;98055.38;5039285;28;20112;-64
2024/01/10 01:36:23;;;;;;;12.60;6.65;;;;;;;-7.11;100.00;98050.97;5052846;28;20520;-64
2024/01/10 01:38:50;;;;;;;13.88;8.05;;;;;;;-7.07;100.00;98055.03;5041251;28;20044;-64
2024/01/10 01:41:17;;;;;;;16.83;6.93;;;;;;;-7.06;100.00;98052.28;5044941;28;20044;-63
2024/01/10 01:43:44;;;;;;;13.20;7.68;;;;;;;-6.97;100.00;98057.75;5041953;28;20038;-64
2024/01/10 01:46:11;;;;;;;17.25;8.77;;;;;;;-6.92;100.00;98048.50;5034572;28;20053;-64
2024/01/10 01:48:38;;;;;;;12.65;7.10;;;;;;;-6.96;100.00;98052.34;5038640;28;20040;-64
2024/01/10 01:51:06;;;;;;;15.80;7.13;;;;;;;-6.63;100.00;98041.00;5055182;28;20068;-64
2024/01/10 01:53:35;;;;;;;13.75;7.05;;;;;;;-6.64;100.00;98050.69;5046172;28;20412;-64
2024/01/10 01:56:06;;;;;;;16.50;7.43;;;;;;;-6.36;100.00;98040.53;5049834;28;20056;-65
2024/01/10 01:58:33;;;;;;;12.52;7.32;;;;;;;-6.25;100.00;98038.78;5039826;28;20033;-65
2024/01/10 02:01:03;;;;;;;16.83;8.02;;;;;;;-6.29;100.00;98040.84;5036763;28;20048;-64
2024/01/10 02:03:31;;;;;;;13.45;7.15;;;;;;;-6.32;100.00;98041.09;5054353;28;20111;-64
2024/01/10 02:06:03;;;;;;;18.42;7.35;;;;;;;-6.37;100.00;98038.84;5048384;28;20041;-63
2024/01/10 02:08:33;;;;;;;15.40;7.25;;;;;;;-6.33;100.00;98039.44;5056492;28;20037;-64
2024/01/10 02:11:01;;;;;;;14.47;6.97;;;;;;;-6.25;100.00;98033.50;5053450;28;20075;-64
2024/01/10 02:13:28;;;;;;;17.85;7.15;;;;;;;-6.31;100.00;98035.69;5036422;28;20045;-65
2024/01/10 02:15:56;;;;;;;12.65;5.97;;;;;;;-6.29;100.00;98035.56;5056429;28;20120;-63
2024/01/10 02:18:22;;;;;;;11.13;5.75;;;;;;;-6.22;100.00;98036.75;5047096;28;20036;-63
2024/01/10 02:20:49;;;;;;;13.75;6.72;;;;;;;-6.13;99.96;98027.22;5044898;28;20037;-64
2024/01/10 02:23:16;;;;;;;12.48;6.75;;;;;;;-6.14;97.55;98030.81;5050018;28;20055;-64
2024/01/10 02:25:42;;;;;;;12.55;6.97;;;;;;;-6.14;97.07;98022.91;5042216;28;20037;-64
2024/01/10 02:28:09;;;;;;;12.85;7.20;;;;;;;-6.12;97.08;98022.78;5051637;28;20066;-63
2024/01/10 02:30:36;;;;;;;16.48;6.60;;;;;;;-6.16;95.44;98025.66;5058631;28;20040;-64
2024/01/10 02:33:03;;;;;;;11.40;5.43;;;;;;;-6.17;94.96;98017.88;5057192;28;20048;-63
2024/01/10 02:35:32;;;;;;;15.02;6.70;;;;;;;-6.20;94.65;98018.97;5050502;28;20037;-64
2024/01/10 02:38:00;;;;;;;11.13;6.57;;;;;;;-6.24;95.03;98024.66;5037013;28;20068;-63
2024/01/10 02:40:26;;;;;;;16.00;7.85;;;;;;;-6.27;95.84;98020.47;5035304;28;20044;-64
2024/01/10 02:42:53;;;;;;;14.07;6.85;;;;;;;-6.25;96.92;98022.97;5062400;28;20044;-63
2024/01/10 02:45:20;;;;;;;14.73;6.88;;;;;;;-6.29;96.43;98017.97;5061614;28;20040;-64
2024/01/10 02:47:46;;;;;;;10.65;5.70;;;;;;;-6.30;97.35;98018.91;5061883;28;20133;-64
2024/01/10 02:50:13;;;;;;;13.63;6.47;;;;;;;-6.38;96.86;98013.44;5040246;28;20087;-64
2024/01/10 02:52:40;;;;;;;12.18;6.78;;;;;;;-6.34;99.44;98016.69;5055595;28;20040;-64
2024/01/10 02:55:07;;;;;;;13.63;6.68;;;;;;;-6.51;99.38;98018.91;5055522;28;20052;-63
2024/01/10 02:57:33;;;;;;;15.20;7.20;;;;;;;-6.66;100.00;98019.22;5050532;28;20037;-64
2024/01/10 03:00:00;;;;;;;13.57;6.07;;;;;;;-6.82;100.00;98010.91;5035249;28;20413;-64
2024/01/10 03:02:26;;;;;;;15.70;6.55;;;;;;;-6.97;100.00;98005.09;5044447;28;20282;-64
2024/01/10 03:04:53;;;;;;;12.50;5.93;;;;;;;-6.84;100.00;98004.91;5040693;28;20476;-64
2024/01/10 03:07:19;;;;;;;15.25;6.75;;;;;;;-6.89;100.00;98009.72;5052710;28;20395;-64
2024/01/10 03:09:46;;;;;;;17.70;7.05;;;;;;;-6.88;100.00;98006.13;5063260;28;20119;-64
2024/01/10 03:12:13;;;;;;;15.93;6.15;;;;;;;-6.86;100.00;98004.22;5041822;28;20096;-63
2024/01/10 03:14:39;;;;;;;15.05;6.70;;;;;;;-6.89;100.00;98001.84;5035101;28;20410;-63
2024/01/10 03:17:06;;;;;;;12.25;6.45;;;;;;;-6.90;100.00;98003.63;5049868;28;20101;-64
2024/01/10 03:19:32;;;;;;;15.38;7.35;;;;;;;-6.95;100.00;97996.13;5052449;28;20036;-63
2024/01/10 03:21:59;;;;;;;12.82;7.03;;;;;;;-6.95;100.00;97993.47;5061384;28;20548;-64
2024/01/10 03:24:27;;;;;;;15.02;7.07;;;;;;;-7.02;100.00;98008.09;5054510;28;20126;-63
2024/01/10 03:26:53;;;;;;;12.40;6.68;;;;;;;-7.11;100.00;97998.31;5058138;28;20067;-63
2024/01/10 03:29:20;;;;;;;10.88;6.03;;;;;;;-7.22;100.00;97988.66;5042593;28;20051;-63
2024/01/10 03:31:46;;;;;;;17.33;7.45;;;;;;;-7.21;100.00;97993.78;5056884;28;20045;-64
2024/01/10 03:34:13;;;;;;;14.38;6.70;;;;;;;-7.25;100.00;97994.16;5064664;28;20043;-64
2024/01/10 03:36:40;;;;;;;15.02;6.57;;;;;;;-7.30;100.00;97997.13;5051031;28;20032;-64
2024/01/10 03:39:06;;;;;;;13.80;6.43;;;;;;;-7.23;100.00;97993.06;5050305;28;20063;-64
2024/01/10 03:41:33;;;;;;;18.90;7.80;;;;;;;-7.22;100.00;98001.81;5054510;28;20535;-65
2024/01/10 03:44:00;;;;;;;14.75;7.35;;;;;;;-7.21;100.00;98004.31;5051003;28;20358;-64
2024/01/10 03:46:26;;;;;;;12.52;5.75;;;;;;;-7.20;100.00;97998.09;5064761;28;20071;-64
2024/01/10 03:48:53;;;;;;;11.88;6.38;;;;;;;-7.09;100.00;97994.59;5058590;28;20043;-64
2024/01/10 03:51:19;;;;;;;11.10;5.93;;;;;;;-7.21;100.00;97996.44;5041337;28;20044;-63
2024/01/10 03:53:46;;;;;;;16.45;7.20;;;;;;;-7.16;100.00;97996.03;5047931;28;20658;-63
2024/01/10 03:56:13;;;;;;;17.13;7.35;;;;;;;-7.25;100.00;97996.78;5059727;28;20056;-64
2024/01/10 03:58:40;;;;;;;17.48;8.40;;;;;;;-7.25;100.00;97995.00;5050913;28;20249;-63
2024/01/10 04:01:07;;;;;;;13.80;6.50;;;;;;;-7.23;100.00;97994.88;5051293;28;20037;-64
2024/01/10 04:03:35;;;;;;;12.98;6.53;;;;;;;-7.23;100.00;98005.41;5063970;28;20036;-63
2024/01/10 04:06:02;;;;;;;11.07;6.93;;;;;;;-7.25;100.00;98012.56;5043551;28;20465;-63
2024/01/10 04:08:29;;;;;;;14.52;6.43;;;;;;;-7.20;100.00;98005.97;5048518;28;20041;-63
2024/01/10 04:10:55;;;;;;;14.38;6.35;;;;;;;-7.13;100.00;98005.47;5049998;28;20193;-66
2024/01/10 04:13:22;;;;;;;16.08;6.95;;;;;;;-7.09;100.00;98001.63;5055541;28;20068;-63
2024/01/10 04:15:49;;;;;;;13.32;6.45;;;;;;;-6.98;100.00;98006.88;5042288;28;20156;-63
2024/01/10 04:18:15;;;;;;;16.30;5.75;;;;;;;-6.97;100.00;98005.91;5032631;28;20053;-63
2024/01/10 04:20:43;;;;;;;17.42;7.70;;;;;;;-6.88;100.00;98006.13;5039740;28;20045;-63
2024/01/10 04:23:10;;;;;;;15.85;6.78;;;;;;;-6.84;100.00;98010.19;5046034;28;20205;-63
2024/01/10 04:25:37;;;;;;;15.52;6.38;;;;;;;-6.86;100.00;98014.75;5052272;28;20112;-64
2024/01/10 04:28:04;;;;;;;14.07;6.32;;;;;;;-6.86;100.00;98001.59;5053566;28;20044;-64
2024/01/10 04:30:31;;;;;;;14.68;7.32;;;;;;;-6.82;100.00;98014.38;5050533;28;20049;-63
2024/01/10 04:32:58;;;;;;;14.05;6.90;;;;;;;-6.75;100.00;98016.50;5053548;28;20044;-64
2024/01/10 04:35:25;;;;;;;11.50;6.50;;;;;;;-6.69;100.00;98005.47;5055131;28;20037;-63
2024/01/10 04:37:52;;;;;;;15.20;7.55;;;;;;;-6.58;100.00;98013.31;5054300;28;20055;-64
2024/01/10 04:40:18;;;;;;;15.25;6.70;;;;;;;-6.55;100.00;98009.59;5054395;28;20041;-64
2024/01/10 04:42:45;;;;;;;17.45;7.30;;;;;;;-6.59;100.00;98000.28;5044357;28;20044;-63
2024/01/10 04:45:11;;;;;;;15.23;7.32;;;;;;;-6.42;100.00;98002.34;5043760;28;20527;-63
2024/01/10 04:47:38;;;;;;;15.13;7.75;;;;;;;-6.41;100.00;97993.47;5048411;28;20308;-64
2024/01/10 04:50:05;;;;;;;18.20;7.10;;;;;;;-6.38;100.00;98002.91;5052218;28;20036;-63
2024/01/10 04:52:35;;;;;;;12.77;6.97;;;;;;;-6.35;100.00;97997.38;5047373;28;20049;-63
2024/01/10 04:55:02;;;;;;;13.27;7.00;;;;;;;-6.43;100.00;97997.19;5039776;28;20041;-63
2024/01/10 04:57:29;;;;;;;13.68;6.65;;;;;;;-6.47;100.00;98001.88;5054393;28;20544;-63
2024/01/10 04:59:56;;;;;;;13.20;6.32;;;;;;;-6.29;100.00;97996.88;5044432;28;20073;-63
2024/01/10 05:02:22;;;;;;;17.45;8.00;;;;;;;-6.35;100.00;97999.19;5053190;28;20645;-65
2024/01/10 05:04:49;;;;;;;14.02;6.53;;;;;;;-6.37;100.00;98003.75;5046998;28;20485;-64
2024/01/10 05:07:16;;;;;;;13.50;6.10;;;;;;;-6.49;100.00;98001.16;5044363;28;20421;-64
2024/01/10 05:09:43;;;;;;;14.65;7.15;;;;;;;-6.48;100.00;98002.84;5042704;28;20041;-63
2024/01/10 05:12:09;;;;;;;17.05;7.68;;;;;;;-6.47;100.00;98006.31;5041947;28;20106;-63
2024/01/10 05:14:36;;;;;;;17.65;7.95;;;;;;;-6.28;100.00;98003.81;5044249;28;20057;-64
2024/01/10 05:17:03;;;;;;;16.02;8.07;;;;;;;-6.18;100.00;98014.44;5041400;28;20051;-64
2024/01/10 05:19:29;;;;;;;15.30;7.07;;;;;;;-6.40;100.00;98010.13;5032404;28;20040;-64
2024/01/10 05:21:57;;;;;;;15.45;6.97;;;;;;;-6.55;100.00;98012.22;5047524;28;20532;-63
2024/01/10 05:24:26;;;;;;;13.63;6.65;;;;;;;-6.71;100.00;98015.28;5033690;28;20041;-63
2024/01/10 05:26:52;;;;;;;15.77;6.03;;;;;;;-6.76;100.00;98002.50;5041157;28;20512;-63
2024/01/10 05:29:19;;;;;;;15.63;7.85;;;;;;;-6.89;100.00;98002.69;5040727;28;20052;-64
2024/01/10 05:31:46;;;;;;;13.38;6.38;;;;;;;-7.11;100.00;98009.66;5041061;28;20055;-64
2024/01/10 05:34:13;;;;;;;16.95;7.50;;;;;;;-7.18;100.00;98011.13;5046000;28;20037;-63
2024/01/10 05:36:39;;;;;;;13.95;7.00;;;;;;;-7.00;100.00;98007.97;5040865;28;20079;-63
2024/01/10 05:39:06;;;;;;;18.40;6.80;;;;;;;-6.97;100.00;98013.81;5039795;28;20064;-63
2024/01/10 05:41:32;;;;;;;16.95;7.50;;;;;;;-7.02;100.00;98013.34;5036685;28;20044;-63
2024/01/10 05:43:59;;;;;;;14.00;7.22;;;;;;;-7.13;100.00;98008.09;5031415;28;20081;-63
2024/01/10 05:46:28;;;;;;;14.80;7.20;;;;;;;-7.31;100.00;98012.09;5042255;28;20044;-63
2024/01/10 05:48:54;;;;;;;15.93;8.00;;;;;;;-7.37;100.00;98006.50;5041720;28;20418;-63
2024/01/10 05:51:21;;;;;;;15.40;7.30;;;;;;;-7.47;100.00;98009.88;5039369;28;20049;-63
2024/01/10 05:53:47;;;;;;;14.52;6.97;;;;;;;-7.50;100.00;98014.50;5033573;28;20046;-63
2024/01/10 05:56:14;;;;;;;17.98;8.13;;;;;;;-7.55;100.00;98019.31;5048514;28;20079;-64
2024/01/10 05:58:41;;;;;;;14.52;7.72;;;;;;;-7.55;100.00;98012.25;5044850;28;20037;-64
2024/01/10 06:01:09;;;;;;;19.58;7.72;;;;;;;-7.58;100.00;98015.13;5036112;28;20115;-64
2024/01/10 06:03:37;;;;;;;12.13;6.88;;;;;;;-7.58;100.00;98017.75;5040279;28;20057;-64
2024/01/10 06:06:04;;;;;;;15.55;7.50;;;;;;;-7.74;100.00;98018.94;5038192;28;20041;-64
2024/01/10 06:08:31;;;;;;;17.13;7.22;;;;;;;-7.66;100.00;98007.84;5045281;28;20061;-63
2024/01/10 06:10:57;;;;;;;15.15;6.22;;;;;;;-7.68;100.00;98009.75;5049413;28;20110;-63
2024/01/10 06:13:24;;;;;;;10.15;5.68;;;;;;;-7.83;100.00;98019.66;5042890;28;20067;-64
2024/01/10 06:15:50;;;;;;;13.27;6.75;;;;;;;-7.71;100.00;98009.97;5046849;28;20121;-64
2024/01/10 06:18:17;;;;;;;16.13;7.60;;;;;;;-7.81;100.00;98016.91;5038538;28;20066;-64
2024/01/10 06:20:44;;;;;;;12.02;6.97;;;;;;;-7.93;100.00;98011.66;5039854;28;20097;-64
2024/01/10 06:23:10;;;;;;;15.55;6.28;;;;;;;-8.16;100.00;98019.53;5048468;28;20246;-64
2024/01/10 06:25:37;;;;;;;15.20;6.85;;;;;;;-8.26;100.00;98024.63;5041870;28;20112;-64
2024/01/10 06:28:03;;;;;;;16.40;7.38;;;;;;;-8.33;100.00;98022.59;5038020;28;20109;-64
2024/01/10 06:30:30;;;;;;;13.35;7.07;;;;;;;-8.36;100.00;98019.22;5037590;28;20037;-63
2024/01/10 06:32:57;;;;;;;16.65;6.90;;;;;;;-8.17;100.00;98017.00;5027007;28;20280;-63
2024/01/10 06:35:23;;;;;;;18.95;7.88;;;;;;;-8.23;100.00;98015.66;5035290;28;20052;-62
2024/01/10 06:37:50;;;;;;;15.60;7.97;;;;;;;-8.40;100.00;98016.97;5045196;28;20049;-63
2024/01/10 06:40:16;;;;;;;35.85;16.02;;;;;;;-8.28;100.00;98017.81;5034175;28;20103;-63
2024/01/10 06:42:43;;;;;;;14.55;9.50;;;;;;;-8.30;100.00;98017.94;5031706;28;20064;-63
2024/01/10 06:45:11;;;;;;;19.55;8.75;;;;;;;-8.35;100.00;98020.06;5037263;28;20087;-63
2024/01/10 06:47:38;;;;;;;16.17;8.02;;;;;;;-8.43;100.00;98022.44;5036665;28;20047;-63
2024/01/10 06:50:05;;;;;;;20.77;10.93;;;;;;;-8.52;100.00;98027.44;5033419;28;20095;-63
2024/01/10 06:52:32;;;;;;;16.13;10.52;;;;;;;-8.60;100.00;98026.38;5034278;28;20051;-63
2024/01/10 06:54:58;;;;;;;12.23;7.53;;;;;;;-8.62;100.00;98026.47;5030454;28;20093;-62
2024/01/10 06:57:26;;;;;;;14.02;8.20;;;;;;;-8.69;100.00;98035.75;5036275;28;20115;-62
2024/01/10 06:59:53;;;;;;;19.67;12.15;;;;;;;-8.63;100.00;98038.75;5035783;28;20500;-63
2024/01/10 07:02:19;;;;;;;16.85;8.68;;;;;;;-8.55;100.00;98035.56;5038260;28;20120;-63
2024/01/10 07:04:48;;;;;;;20.15;10.40;;;;;;;-8.59;100.00;98044.63;5030590;28;20041;-64
2024/01/10 07:07:14;;;;;;;11.63;7.25;;;;;;;-8.66;100.00;98040.78;5037167;28;20481;-63
2024/01/10 07:09:41;;;;;;;21.05;9.38;;;;;;;-8.46;100.00;98036.66;5036705;28;20061;-63
2024/01/10 07:12:08;;;;;;;16.98;7.70;;;;;;;-8.55;100.00;98042.63;5030888;28;20045;-63
2024/01/10 07:14:34;;;;;;;16.85;8.48;;;;;;;-8.75;100.00;98035.25;5041674;28;20491;-63
2024/01/10 07:17:01;;;;;;;20.40;9.52;;;;;;;-8.76;100.00;98038.84;5040932;28;20033;-63
2024/01/10 07:19:27;;;;;;;21.15;11.93;;;;;;;-8.69;100.00;98041.00;5035992;28;20120;-63
2024/01/10 07:21:55;;;;;;;17.25;9.60;;;;;;;-8.73;100.00;98047.44;5028955;28;20049;-63
2024/01/10 07:24:21;;;;;;;15.10;8.98;;;;;;;-8.72;100.00;98054.34;5029450;28;20053;-63
2024/01/10 07:26:48;;;;;;;17.05;8.15;;;;;;;-8.67;100.00;98052.25;5029093;28;20204;-63
2024/01/10 07:29:15;;;;;;;16.98;7.93;;;;;;;-8.62;100.00;98050.94;5042120;28;20716;-63
2024/01/10 07:31:41;;;;;;;21.08;9.77;;;;;;;-8.62;100.00;98052.75;5034370;28;20115;-63
2024/01/10 07:34:08;;;;;;;19.23;9.10;;;;;;;-8.61;100.00;98059.66;5026631;28;20047;-63
2024/01/10 07:36:42;;;;;;;15.65;7.40;;;;;;;-8.64;100.00;98050.22;5039983;28;20037;-63
2024/01/10 07:39:09;;;;;;;14.30;8.13;;;;;;;-8.55;100.00;98056.56;5037499;28;20278;-63
2024/01/10 07:41:36;;;;;;;23.27;9.85;;;;;;;-8.25;100.00;98049.13;5029492;28;20041;-63
2024/01/10 07:44:03;;;;;;;17.80;10.90;;;;;;;-8.18;100.00;98063.47;5026883;28;20037;-64
2024/01/10 07:46:29;;;;;;;19.15;8.15;;;;;;;-8.36;100.00;98060.44;5037147;28;20124;-63
2024/01/10 07:48:56;;;;;;;20.48;9.85;;;;;;;-8.38;100.00;98062.31;5034671;28;20041;-64
2024/01/10 07:51:23;;;;;;;18.35;9.18;;;;;;;-8.26;100.00;98064.03;5034487;28;20523;-64
2024/01/10 07:53:49;;;;;;;18.00;9.93;;;;;;;-8.17;100.00;98067.78;5025065;28;20887;-63
2024/01/10 07:56:16;;;;;;;21.42;12.10;;;;;;;-8.08;100.00;98076.75;5037936;28;20041;-63
2024/01/10 07:58:42;;;;;;;20.10;10.23;;;;;;;-8.15;100.00;98073.75;5037967;28;20098;-63
2024/01/10 08:01:10;;;;;;;20.45;10.68;;;;;;;-7.85;100.00;98075.00;5030491;28;20048;-63
2024/01/10 08:03:37;;;;;;;22.42;10.40;;;;;;;-7.82;100.00;98081.81;5031932;28;20461;-63
2024/01/10 08:06:04;;;;;;;17.10;8.95;;;;;;;-7.74;100.00;98083.88;5032249;28;20540;-63
2024/01/10 08:08:37;;;;;;;21.88;11.00;;;;;;;-7.65;100.00;98074.41;5041212;28;20120;-63
2024/01/10 08:11:04;;;;;;;21.63;10.57;;;;;;;-7.41;100.00;98073.47;5034276;28;20674;-63
2024/01/10 08:13:30;;;;;;;17.63;9.43;;;;;;;-7.49;100.00;98077.53;5033360;28;20123;-63
2024/01/10 08:15:57;;;;;;;22.27;13.10;;;;;;;-7.34;100.00;98087.84;5031597;28;20551;-63
2024/01/10 08:18:23;;;;;;;27.27;12.00;;;;;;;-7.09;100.00;98089.34;5031468;28;20465;-64
2024/01/10 08:20:50;;;;;;;22.58;10.40;;;;;;;-7.04;100.00;98089.00;5033765;28;20042;-63
2024/01/10 08:23:17;;;;;;;22.50;10.55;;;;;;;-7.11;100.00;98088.63;5025416;28;20606;-63
2024/01/10 08:25:44;;;;;;;22.23;11.10;;;;;;;-6.97;100.00;98084.91;5029850;28;20122;-63
2024/01/10 08:28:12;;;;;;;26.00;13.05;;;;;;;-6.68;100.00;98087.00;5029417;28;20049;-63
2024/01/10 08:30:40;;;;;;;24.15;10.70;;;;;;;-6.70;100.00;98093.34;5032132;28;20046;-63
2024/01/10 08:33:07;;;;;;;28.00;13.50;;;;;;;-6.79;100.00;98093.13;5031800;28;20504;-63
2024/01/10 08:35:33;;;;;;;27.60;12.50;;;;;;;-6.54;100.00;98095.56;5032007;28;20109;-63
2024/01/10 08:38:02;;;;;;;37.63;18.77;;;;;;;-6.36;100.00;98084.47;5028715;28;20132;-63
2024/01/10 08:40:29;;;;;;;19.63;11.40;;;;;;;-6.34;100.00;98093.13;5036348;28;20041;-64
2024/01/10 08:42:58;;;;;;;24.95;12.02;;;;;;;-6.42;100.00;98097.19;5025040;28;20083;-63
2024/01/10 08:45:25;;;;;;;21.60;11.40;;;;;;;-6.25;100.00;98100.25;5036002;28;20048;-64
2024/01/10 08:47:52;;;;;;;51.60;24.52;;;;;;;-6.12;100.00;98096.59;5041470;28;20260;-63
2024/01/10 08:50:19;;;;;;;34.65;16.77;;;;;;;-5.98;100.00;98096.25;5028751;28;20075;-63
2024/01/10 08:52:46;;;;;;;38.72;18.55;;;;;;;-6.00;100.00;98098.19;5029840;28;20499;-63
2024/01/10 08:55:13;;;;;;;26.83;13.63;;;;;;;-5.91;100.00;98097.41;5024954;28;20067;-63
2024/01/10 08:57:40;;;;;;;18.60;9.63;;;;;;;-5.91;100.00;98101.84;5038306;28;20112;-63
2024/01/10 09:00:07;;;;;;;22.42;11.63;;;;;;;-5.88;100.00;98093.69;5035539;28;20057;-63
2024/01/10 09:02:36;;;;;;;23.15;11.00;;;;;;;-5.85;100.00;98103.13;5045390;28;20098;-63
2024/01/10 09:05:03;;;;;;;27.30;11.73;;;;;;;-5.78;100.00;98101.66;5047437;28;20044;-63
2024/01/10 09:07:30;;;;;;;23.58;11.55;;;;;;;-5.75;100.00;98104.06;5046633;28;20290;-64
2024/01/10 09:09:57;;;;;;;49.05;22.42;;;;;;;-5.72;100.00;98097.66;5051486;28;20081;-64
2024/01/10 09:12:23;;;;;;;24.25;10.75;;;;;;;-5.62;100.00;98102.03;5038221;28;20124;-63
2024/01/10 09:14:50;;;;;;;22.55;11.82;;;;;;;-5.44;100.00;98109.34;5038201;28;20037;-64
2024/01/10 09:17:17;;;;;;;23.00;12.68;;;;;;;-5.27;100.00;98112.34;5040498;28;20045;-64
2024/01/10 09:19:43;;;;;;;24.52;11.05;;;;;;;-5.19;100.00;98109.88;5045698;28;20132;-63
2024/01/10 09:22:10;;;;;;;34.15;17.50;;;;;;;-5.17;97.86;98121.13;5048818;28;20041;-64
2024/01/10 09:24:36;;;;;;;39.25;20.23;;;;;;;-5.05;98.67;98113.94;5038559;28;20037;-63
2024/01/10 09:27:05;;;;;;;23.20;12.25;;;;;;;-4.96;97.02;98107.88;5037872;28;20421;-63
2024/01/10 09:29:32;;;;;;;21.45;10.05;;;;;;;-4.89;99.47;98120.53;5027490;28;20101;-63
2024/01/10 09:31:58;;;;;;;21.67;11.05;;;;;;;-4.89;95.60;98124.03;5046024;28;20416;-65
2024/01/10 09:34:25;;;;;;;31.23;15.95;;;;;;;-4.81;96.07;98115.41;5034297;28;20041;-63
2024/01/10 09:36:52;;;;;;;24.17;12.15;;;;;;;-4.78;95.35;98119.59;5034966;28;20064;-65
2024/01/10 09:39:19;;;;;;;44.30;23.75;;;;;;;-4.79;94.74;98123.19;5035969;28;20504;-64
2024/01/10 09:41:50;;;;;;;26.35;12.40;;;;;;;-4.78;95.29;98120.44;5035761;28;20076;-64
2024/01/10 09:44:21;;;;;;;22.13;11.50;;;;;;;-4.73;95.41;98120.00;5039335;28;20040;-64
2024/01/10 09:46:51;;;;;;;22.95;11.07;;;;;;;-4.63;95.55;98122.69;5037107;28;20464;-64
2024/01/10 09:49:21;;;;;;;26.17;12.00;;;;;;;-4.54;95.57;98119.22;5031191;28;20037;-64
2024/01/10 09:51:49;;;;;;;24.30;11.35;;;;;;;-4.48;93.92;98123.13;5035337;28;20540;-65
2024/01/10 09:54:16;;;;;;;24.70;12.10;;;;;;;-4.46;94.89;98119.38;5035308;28;20044;-65
2024/01/10 09:56:42;;;;;;;21.13;10.60;;;;;;;-4.46;94.39;98119.38;5041324;28;20419;-64
2024/01/10 09:59:10;;;;;;;22.48;11.18;;;;;;;-4.48;92.03;98118.69;5036515;28;20486;-64
2024/01/10 10:01:40;;;;;;;26.80;15.10;;;;;;;-4.40;92.44;98114.50;5032454;28;20048;-64
2024/01/10 10:04:11;;;;;;;26.17;13.27;;;;;;;-4.32;92.16;98112.84;5044908;28;20113;-62
2024/01/10 10:06:37;;;;;;;22.95;11.70;;;;;;;-4.25;92.61;98114.91;5046676;28;20321;-62
2024/01/10 10:09:07;;;;;;;27.02;12.45;;;;;;;-4.20;92.72;98110.06;5037110;28;20463;-62
2024/01/10 10:11:34;;;;;;;26.17;14.55;;;;;;;-4.12;91.58;98110.22;5031404;28;20396;-63
2024/01/10 10:14:15;;;;;;;31.83;16.02;;;;;;;-4.05;92.33;98113.94;5035548;28;20049;-62
2024/01/10 10:16:42;;;;;;;35.28;18.05;;;;;;;-4.02;90.05;98114.66;5037658;28;20542;-65
2024/01/10 10:19:09;;;;;;;26.30;12.48;;;;;;;-3.93;90.79;98105.88;5033792;28;20045;-63
2024/01/10 10:21:36;;;;;;;23.67;12.27;;;;;;;-3.86;90.10;98103.50;5037297;28;20052;-63
2024/01/10 10:24:06;;;;;;;31.23;12.63;;;;;;;-3.77;90.03;98112.41;5030848;28;20505;-63
2024/01/10 10:26:34;;;;;;;26.40;13.13;;;;;;;-3.68;89.46;98109.72;5040751;28;20330;-64
2024/01/10 10:29:02;;;;;;;23.30;11.63;;;;;;;-3.61;89.07;98098.56;5032088;28;20516;-64
2024/01/10 10:31:31;;;;;;;28.50;11.73;;;;;;;-3.57;88.41;98098.13;5036254;28;20479;-65
2024/01/10 10:34:00;;;;;;;26.83;12.85;;;;;;;-3.59;88.71;98094.81;5035009;28;20500;-64
2024/01/10 10:36:27;;;;;;;26.85;12.88;;;;;;;-3.44;89.38;98096.97;5034113;28;20511;-64
2024/01/10 10:38:54;;;;;;;24.88;13.38;;;;;;;-3.35;89.88;98100.59;5027147;28;20042;-64
2024/01/10 10:41:21;;;;;;;23.45;13.00;;;;;;;-3.25;88.67;98103.22;5045101;28;20446;-64
2024/01/10 10:43:50;;;;;;;22.48;12.48;;;;;;;-3.30;87.06;98104.47;5028616;28;20095;-64
2024/01/10 10:46:16;;;;;;;27.27;13.05;;;;;;;-3.20;87.09;98098.31;5044841;28;20041;-63
2024/01/10 10:48:43;;;;;;;28.58;12.10;;;;;;;-3.11;86.64;98096.56;5035777;28;20045;-63
2024/01/10 10:51:18;;;;;;;24.27;13.00;;;;;;;-3.10;87.43;98098.25;5036782;28;20056;-62
2024/01/10 10:53:46;;;;;;;25.38;12.77;;;;;;;-3.00;87.66;98101.69;5028054;28;20127;-61
2024/01/10 10:56:13;;;;;;;27.63;12.75;;;;;;;-2.92;87.85;98095.66;5040802;28;20125;-61
2024/01/10 10:58:44;;;;;;;26.10;12.98;;;;;;;-2.92;85.74;98093.00;5037128;28;20041;-62
2024/01/10 11:01:15;;;;;;;21.23;11.98;;;;;;;-2.88;86.40;98102.31;5037328;28;20098;-61
2024/01/10 11:03:47;;;;;;;28.00;14.02;;;;;;;-2.88;86.28;98100.50;5034452;28;20037;-61
2024/01/10 11:06:13;;;;;;;25.67;11.30;;;;;;;-2.78;85.63;98103.13;5034600;28;20056;-62
2024/01/10 11:08:48;;;;;;;23.48;12.82;;;;;;;-2.75;84.67;98102.00;5044114;28;20033;-62
2024/01/10 11:11:39;;;;;;;24.48;13.30;;;;;;;-2.81;84.54;98100.75;5030926;28;20103;-61
2024/01/10 11:14:18;;;;;;;26.40;12.85;;;;;;;-2.75;84.57;98092.22;5037802;28;20683;-62
2024/01/10 11:17:09;;;;;;;28.13;14.48;;;;;;;-2.81;83.87;98090.16;5045611;28;20044;-62